Forside
METAR-TAF:

METAR-TAF

Lufthavne :

Liverpool John Lennon Airport

Liverpool, England

Breddekreds: 53-20N, længdekreds: 002-51W, højde: 26 m

Aktuelle vejr

Denne rapport blev lavet for 37 minutter siden, kl. 01:20 UTC
Vind 3 kt fra varierende retninger
Temperatur 9°C
Fugtighed 76%
Tryk 1033 hPa
Sigt 10 km eller mere

METAR: EGGP 250120Z AUTO VRB03KT 9999 NCD 09/05 Q1033

Tid: 02:57 (01:57 UTC)

Vejrudsigter

Denne rapport blev lavet for 3 timer og 7 minutter siden, kl. 22:50 UTC
Foreløbig gælder fra 25 på 00 UTC til 25 på 24 UTC
Vind 4 kt fra sydsydvest
Sigt 10 km eller mere
Nogle få skyer i en højde af 4000 ft
Sandsynlighed 30%
fra 25 på 03 UTC til 25 på 07 UTC
Sigt: 8000 m
ændring
fra 25 på 09 UTC til 25 på 12 UTC
Vind 10 kt fra vestnordvest

TAF: EGGP 242250Z 2500/2524 20004KT 9999 FEW040 PROB30 2503/2507 8000 BECMG 2509/2512 29010KT

Vejrobservationer og prognoser fra mere end 4000 lufthavne (METAR og TAF).

De gule og røde prikker repræsenterer de meteorologiske stationer.

Flyt musen over at se navnet på stationen.

Så klik over at se vejr observationer og prognoser.

At skifte det kort: Klik på de grønne knapper med et sort kors for at zoome ind; på den grønne knap med en bindestreg for at zoome ud; eller på de grønne pile for tilstødende kort.


METAR-TAF: